sensor_id;sensor_type;location;lat;lon;timestamp;pressure;altitude;pressure_sealevel;temperature;humidity
56518;BME280;42419;48.760;2.322;2023-04-02T00:01:22;100557.75;;;25.32;31.67
56518;BME280;42419;48.760;2.322;2023-04-02T00:09:22;100566.78;;;25.31;31.39
56518;BME280;42419;48.760;2.322;2023-04-02T00:11:47;100563.34;;;25.29;32.13
56518;BME280;42419;48.760;2.322;2023-04-02T00:16:48;100566.78;;;25.31;31.68
56518;BME280;42419;48.760;2.322;2023-04-02T00:19:45;100572.84;;;25.35;31.48
56518;BME280;42419;48.760;2.322;2023-04-02T00:22:17;100577.56;;;25.31;31.43
56518;BME280;42419;48.760;2.322;2023-04-02T00:24:43;100577.69;;;25.30;31.54
56518;BME280;42419;48.760;2.322;2023-04-02T00:27:11;100577.47;;;25.33;31.87
56518;BME280;42419;48.760;2.322;2023-04-02T00:29:47;100579.31;;;25.32;31.37
56518;BME280;42419;48.760;2.322;2023-04-02T00:32:24;100574.00;;;25.31;31.82
56518;BME280;42419;48.760;2.322;2023-04-02T00:34:50;100584.78;;;25.31;31.62
56518;BME280;42419;48.760;2.322;2023-04-02T00:37:21;100584.78;;;25.31;31.88
56518;BME280;42419;48.760;2.322;2023-04-02T00:39:49;100586.63;;;25.30;31.67
56518;BME280;42419;48.760;2.322;2023-04-02T00:42:16;100566.41;;;25.23;31.56
56518;BME280;42419;48.760;2.322;2023-04-02T00:44:44;100572.31;;;25.30;31.43
56518;BME280;42419;48.760;2.322;2023-04-02T00:47:33;100581.81;;;25.35;32.02
56518;BME280;42419;48.760;2.322;2023-04-02T00:50:18;100587.00;;;25.38;31.84
56518;BME280;42419;48.760;2.322;2023-04-02T00:52:48;100588.94;;;25.36;31.42
56518;BME280;42419;48.760;2.322;2023-04-02T00:55:23;100595.19;;;25.37;31.96
56518;BME280;42419;48.760;2.322;2023-04-02T00:57:49;100571.59;;;25.26;31.53
56518;BME280;42419;48.760;2.322;2023-04-02T01:00:22;100588.84;;;25.38;31.58
56518;BME280;42419;48.760;2.322;2023-04-02T01:05:43;100597.09;;;25.35;31.45
56518;BME280;42419;48.760;2.322;2023-04-02T01:13:34;100609.03;;;25.31;31.36
56518;BME280;42419;48.760;2.322;2023-04-02T01:16:23;100611.00;;;25.29;31.43
56518;BME280;42419;48.760;2.322;2023-04-02T01:19:38;100610.41;;;25.24;31.18
56518;BME280;42419;48.760;2.322;2023-04-02T01:22:02;100613.97;;;25.24;31.32
56518;BME280;42419;48.760;2.322;2023-04-02T01:24:33;100605.97;;;25.23;31.40
56518;BME280;42419;48.760;2.322;2023-04-02T01:27:01;100605.97;;;25.23;31.08
56518;BME280;42419;48.760;2.322;2023-04-02T01:29:30;100611.47;;;25.21;31.11
56518;BME280;42419;48.760;2.322;2023-04-02T01:32:06;100614.25;;;25.20;31.13
56518;BME280;42419;48.760;2.322;2023-04-02T01:34:32;100614.19;;;25.21;30.57
56518;BME280;42419;48.760;2.322;2023-04-02T01:45:00;100577.38;;;24.92;30.71
56518;BME280;42419;48.760;2.322;2023-04-02T01:47:27;100618.13;;;25.16;31.05
56518;BME280;42419;48.760;2.322;2023-04-02T01:52:40;100630.44;;;25.20;30.60
56518;BME280;42419;48.760;2.322;2023-04-02T01:55:08;100622.63;;;25.15;30.72
56518;BME280;42419;48.760;2.322;2023-04-02T01:57:36;100636.69;;;25.20;30.22
56518;BME280;42419;48.760;2.322;2023-04-02T02:00:04;100607.69;;;25.10;30.85
56518;BME280;42419;48.760;2.322;2023-04-02T02:02:36;100623.22;;;25.20;30.39
56518;BME280;42419;48.760;2.322;2023-04-02T02:05:02;100612.06;;;25.12;30.35
56518;BME280;42419;48.760;2.322;2023-04-02T02:07:28;100613.88;;;25.12;30.37
56518;BME280;42419;48.760;2.322;2023-04-02T02:09:54;100558.41;;;24.79;30.41
56518;BME280;42419;48.760;2.322;2023-04-02T02:12:19;100633.88;;;25.22;30.35
56518;BME280;42419;48.760;2.322;2023-04-02T02:14:49;100618.41;;;25.11;30.36
56518;BME280;42419;48.760;2.322;2023-04-02T02:17:26;100645.44;;;25.24;30.20
56518;BME280;42419;48.760;2.322;2023-04-02T02:19:56;100632.75;;;25.12;30.62
56518;BME280;42419;48.760;2.322;2023-04-02T02:22:31;100642.75;;;25.24;30.00
56518;BME280;42419;48.760;2.322;2023-04-02T02:25:00;100642.84;;;25.22;30.01
56518;BME280;42419;48.760;2.322;2023-04-02T02:29:55;100638.81;;;25.15;29.75
56518;BME280;42419;48.760;2.322;2023-04-02T02:32:24;100641.88;;;25.23;30.46
56518;BME280;42419;48.760;2.322;2023-04-02T02:34:59;100656.22;;;25.24;30.33
56518;BME280;42419;48.760;2.322;2023-04-02T02:37:34;100661.69;;;25.22;30.06
56518;BME280;42419;48.760;2.322;2023-04-02T02:40:02;100669.69;;;25.24;30.15
56518;BME280;42419;48.760;2.322;2023-04-02T02:42:39;100675.00;;;25.25;30.21
56518;BME280;42419;48.760;2.322;2023-04-02T02:45:12;100656.88;;;25.13;30.47
56518;BME280;42419;48.760;2.322;2023-04-02T02:47:41;100670.78;;;25.21;29.95
56518;BME280;42419;48.760;2.322;2023-04-02T02:50:30;100671.53;;;25.23;29.75
56518;BME280;42419;48.760;2.322;2023-04-02T02:52:58;100682.31;;;25.23;30.20
56518;BME280;42419;48.760;2.322;2023-04-02T02:55:28;100678.75;;;25.23;30.05
56518;BME280;42419;48.760;2.322;2023-04-02T02:58:04;100685.00;;;25.23;30.25
56518;BME280;42419;48.760;2.322;2023-04-02T03:00:33;100689.53;;;25.23;29.59
56518;BME280;42419;48.760;2.322;2023-04-02T03:03:06;100686.06;;;25.21;29.60
56518;BME280;42419;48.760;2.322;2023-04-02T03:05:34;100699.44;;;25.22;30.28
56518;BME280;42419;48.760;2.322;2023-04-02T03:08:02;100704.66;;;25.25;29.67
56518;BME280;42419;48.760;2.322;2023-04-02T03:10:43;100700.09;;;25.26;29.79
56518;BME280;42419;48.760;2.322;2023-04-02T03:15:41;100711.94;;;25.23;30.08
56518;BME280;42419;48.760;2.322;2023-04-02T03:18:41;100707.16;;;25.28;29.58
56518;BME280;42419;48.760;2.322;2023-04-02T03:24:21;100665.97;;;24.96;29.89
56518;BME280;42419;48.760;2.322;2023-04-02T03:26:57;100709.06;;;25.26;29.95
56518;BME280;42419;48.760;2.322;2023-04-02T03:29:28;100715.44;;;25.25;29.96
56518;BME280;42419;48.760;2.322;2023-04-02T03:34:35;100720.81;;;25.25;29.99
56518;BME280;42419;48.760;2.322;2023-04-02T03:37:07;100720.81;;;25.25;29.93
56518;BME280;42419;48.760;2.322;2023-04-02T03:39:41;100728.78;;;25.27;30.04
56518;BME280;42419;48.760;2.322;2023-04-02T03:42:14;100734.00;;;25.30;29.93
56518;BME280;42419;48.760;2.322;2023-04-02T03:44:50;100722.66;;;25.25;29.27
56518;BME280;42419;48.760;2.322;2023-04-02T03:52:45;100707.91;;;25.16;29.66
56518;BME280;42419;48.760;2.322;2023-04-02T03:55:13;100741.03;;;25.32;29.48
56518;BME280;42419;48.760;2.322;2023-04-02T04:03:11;100657.19;;;24.79;29.69
56518;BME280;42419;48.760;2.322;2023-04-02T04:05:50;100756.25;;;25.33;29.74
56518;BME280;42419;48.760;2.322;2023-04-02T04:08:33;100758.00;;;25.34;29.33
56518;BME280;42419;48.760;2.322;2023-04-02T04:11:07;100746.91;;;25.25;29.30
56518;BME280;42419;48.760;2.322;2023-04-02T04:13:40;100747.78;;;25.25;29.51
56518;BME280;42419;48.760;2.322;2023-04-02T04:16:13;100767.97;;;25.32;29.51
56518;BME280;42419;48.760;2.322;2023-04-02T04:18:47;100763.16;;;25.23;29.56
56518;BME280;42419;48.760;2.322;2023-04-02T04:21:19;100764.41;;;25.32;29.61
56518;BME280;42419;48.760;2.322;2023-04-02T04:23:54;100774.31;;;25.31;29.89
56518;BME280;42419;48.760;2.322;2023-04-02T04:26:31;100783.97;;;25.35;29.54
56518;BME280;42419;48.760;2.322;2023-04-02T04:29:12;100774.16;;;25.34;29.75
56518;BME280;42419;48.760;2.322;2023-04-02T04:31:50;100786.84;;;25.32;29.50
56518;BME280;42419;48.760;2.322;2023-04-02T04:34:42;100778.84;;;25.31;29.95
56518;BME280;42419;48.760;2.322;2023-04-02T04:37:23;100784.16;;;25.32;29.72
56518;BME280;42419;48.760;2.322;2023-04-02T04:40:07;100791.38;;;25.32;29.65
56518;BME280;42419;48.760;2.322;2023-04-02T04:42:36;100788.75;;;25.30;29.36
56518;BME280;42419;48.760;2.322;2023-04-02T04:47:49;100800.31;;;25.32;29.27
56518;BME280;42419;48.760;2.322;2023-04-02T04:50:27;100807.34;;;25.35;29.92
56518;BME280;42419;48.760;2.322;2023-04-02T04:52:53;100814.69;;;25.33;29.20
56518;BME280;42419;48.760;2.322;2023-04-02T04:55:32;100829.78;;;25.35;29.39
56518;BME280;42419;48.760;2.322;2023-04-02T05:03:53;100829.63;;;25.38;29.45
56518;BME280;42419;48.760;2.322;2023-04-02T05:06:39;100827.69;;;25.40;28.99
56518;BME280;42419;48.760;2.322;2023-04-02T05:09:38;100837.50;;;25.41;29.58
56518;BME280;42419;48.760;2.322;2023-04-02T05:12:21;100839.25;;;25.42;29.62
56518;BME280;42419;48.760;2.322;2023-04-02T05:17:52;100854.97;;;25.50;29.34
56518;BME280;42419;48.760;2.322;2023-04-02T05:20:31;100857.66;;;25.50;29.79
56518;BME280;42419;48.760;2.322;2023-04-02T05:23:04;100867.56;;;25.49;30.21
56518;BME280;42419;48.760;2.322;2023-04-02T05:25:36;100856.78;;;25.49;29.96
56518;BME280;42419;48.760;2.322;2023-04-02T05:28:25;100861.22;;;25.51;29.68
56518;BME280;42419;48.760;2.322;2023-04-02T05:30:58;100872.00;;;25.51;29.16
56518;BME280;42419;48.760;2.322;2023-04-02T05:33:28;100869.13;;;25.54;29.18
56518;BME280;42419;48.760;2.322;2023-04-02T05:38:28;100872.38;;;25.44;29.54
56518;BME280;42419;48.760;2.322;2023-04-02T05:41:00;100891.56;;;25.54;30.20
56518;BME280;42419;48.760;2.322;2023-04-02T05:43:30;100896.88;;;25.56;29.94
56518;BME280;42419;48.760;2.322;2023-04-02T05:46:01;100884.53;;;25.52;29.88
56518;BME280;42419;48.760;2.322;2023-04-02T05:50:57;100898.03;;;25.52;30.44
56518;BME280;42419;48.760;2.322;2023-04-02T05:53:45;100902.44;;;25.53;29.69
56518;BME280;42419;48.760;2.322;2023-04-02T05:56:49;100907.38;;;25.60;30.36
56518;BME280;42419;48.760;2.322;2023-04-02T05:59:27;100909.00;;;25.63;30.09
56518;BME280;42419;48.760;2.322;2023-04-02T06:02:00;100918.75;;;25.65;29.41
56518;BME280;42419;48.760;2.322;2023-04-02T06:04:49;100922.13;;;25.69;29.30
56518;BME280;42419;48.760;2.322;2023-04-02T06:07:28;100914.03;;;25.69;29.57
56518;BME280;42419;48.760;2.322;2023-04-02T06:13:32;100924.47;;;25.75;28.84
56518;BME280;42419;48.760;2.322;2023-04-02T06:15:29;100935.88;;;25.80;29.21
56518;BME280;42419;48.760;2.322;2023-04-02T06:18:12;100942.91;;;25.82;29.48
56518;BME280;42419;48.760;2.322;2023-04-02T06:20:40;100943.78;;;25.83;29.67
56518;BME280;42419;48.760;2.322;2023-04-02T06:23:14;100936.47;;;25.85;29.56
56518;BME280;42419;48.760;2.322;2023-04-02T06:26:15;100942.63;;;25.87;29.37
56518;BME280;42419;48.760;2.322;2023-04-02T06:28:49;100944.66;;;25.83;28.54
56518;BME280;42419;48.760;2.322;2023-04-02T06:31:27;100944.66;;;25.83;29.50
56518;BME280;42419;48.760;2.322;2023-04-02T06:33:55;100949.28;;;25.81;29.53
56518;BME280;42419;48.760;2.322;2023-04-02T06:36:23;100938.06;;;25.73;29.94
56518;BME280;42419;48.760;2.322;2023-04-02T06:38:50;100949.88;;;25.86;29.59
56518;BME280;42419;48.760;2.322;2023-04-02T06:41:20;100959.59;;;25.89;29.23
56518;BME280;42419;48.760;2.322;2023-04-02T06:44:00;100952.28;;;25.91;29.25
56518;BME280;42419;48.760;2.322;2023-04-02T06:46:46;100967.13;;;25.98;29.58
56518;BME280;42419;48.760;2.322;2023-04-02T06:49:28;100967.31;;;25.95;29.00
56518;BME280;42419;48.760;2.322;2023-04-02T06:51:57;100966.53;;;25.93;28.80
56518;BME280;42419;48.760;2.322;2023-04-02T06:54:24;100969.34;;;25.91;28.95
56518;BME280;42419;48.760;2.322;2023-04-02T06:56:52;100971.84;;;25.95;28.83
56518;BME280;42419;48.760;2.322;2023-04-02T06:59:18;100975.63;;;25.92;28.59
56518;BME280;42419;48.760;2.322;2023-04-02T07:04:10;100983.44;;;25.97;28.38
56518;BME280;42419;48.760;2.322;2023-04-02T07:06:35;100979.75;;;25.98;28.81
56518;BME280;42419;48.760;2.322;2023-04-02T07:09:02;100979.06;;;25.94;28.28
56518;BME280;42419;48.760;2.322;2023-04-02T07:11:28;100985.94;;;26.00;28.44
56518;BME280;42419;48.760;2.322;2023-04-02T07:13:53;100993.94;;;26.01;28.37
56518;BME280;42419;48.760;2.322;2023-04-02T07:16:22;101000.28;;;26.00;28.62
56518;BME280;42419;48.760;2.322;2023-04-02T07:18:50;100995.25;;;25.94;28.62
56518;BME280;42419;48.760;2.322;2023-04-02T07:21:15;101010.13;;;26.01;28.24
56518;BME280;42419;48.760;2.322;2023-04-02T07:23:41;101017.44;;;25.99;28.24
56518;BME280;42419;48.760;2.322;2023-04-02T07:26:07;101023.72;;;26.00;28.24
56518;BME280;42419;48.760;2.322;2023-04-02T07:28:33;101019.06;;;26.02;28.49
56518;BME280;42419;48.760;2.322;2023-04-02T07:30:59;101024.59;;;26.00;28.56
56518;BME280;42419;48.760;2.322;2023-04-02T07:33:26;101028.22;;;25.99;27.99
56518;BME280;42419;48.760;2.322;2023-04-02T07:35:53;101037.19;;;26.00;28.31
56518;BME280;42419;48.760;2.322;2023-04-02T07:38:19;101031.72;;;26.01;27.92
56518;BME280;42419;48.760;2.322;2023-04-02T07:40:47;101041.66;;;26.01;28.42
56518;BME280;42419;48.760;2.322;2023-04-02T07:43:13;101040.78;;;26.00;28.57
56518;BME280;42419;48.760;2.322;2023-04-02T07:45:39;101043.47;;;26.00;28.38
56518;BME280;42419;48.760;2.322;2023-04-02T07:48:05;101039.31;;;25.95;28.56
56518;BME280;42419;48.760;2.322;2023-04-02T07:50:31;101050.78;;;25.98;28.24
56518;BME280;42419;48.760;2.322;2023-04-02T07:52:57;101040.19;;;25.95;28.42
56518;BME280;42419;48.760;2.322;2023-04-02T07:55:22;101032.63;;;25.86;28.02
56518;BME280;42419;48.760;2.322;2023-04-02T07:57:50;101049.34;;;25.92;28.05
56518;BME280;42419;48.760;2.322;2023-04-02T08:00:16;101055.75;;;25.90;28.60
56518;BME280;42419;48.760;2.322;2023-04-02T08:02:42;101060.28;;;25.89;28.24
56518;BME280;42419;48.760;2.322;2023-04-02T08:05:08;101063.19;;;25.86;28.62
56518;BME280;42419;48.760;2.322;2023-04-02T08:07:34;101080.31;;;25.85;28.07
56518;BME280;42419;48.760;2.322;2023-04-02T08:10:00;101064.41;;;25.81;28.45
56518;BME280;42419;48.760;2.322;2023-04-02T08:12:26;101080.50;;;25.82;28.10
56518;BME280;42419;48.760;2.322;2023-04-02T08:14:51;101080.50;;;25.82;28.41
56518;BME280;42419;48.760;2.322;2023-04-02T08:17:16;101081.66;;;25.78;28.42
56518;BME280;42419;48.760;2.322;2023-04-02T08:19:42;101064.75;;;25.75;28.17
56518;BME280;42419;48.760;2.322;2023-04-02T08:22:08;101088.59;;;25.82;28.14
56518;BME280;42419;48.760;2.322;2023-04-02T08:24:34;101030.56;;;25.44;28.16
56518;BME280;42419;48.760;2.322;2023-04-02T08:26:59;101064.22;;;25.68;28.25
56518;BME280;42419;48.760;2.322;2023-04-02T08:29:26;101093.19;;;25.80;28.45
56518;BME280;42419;48.760;2.322;2023-04-02T08:31:59;101098.50;;;25.82;28.29
56518;BME280;42419;48.760;2.322;2023-04-02T08:34:25;101078.56;;;25.69;27.91
56518;BME280;42419;48.760;2.322;2023-04-02T08:36:55;101101.13;;;25.83;28.28
56518;BME280;42419;48.760;2.322;2023-04-02T08:39:20;101097.72;;;25.80;28.17
56518;BME280;42419;48.760;2.322;2023-04-02T08:41:52;101103.91;;;25.82;28.41
56518;BME280;42419;48.760;2.322;2023-04-02T08:47:03;101108.16;;;25.86;28.05
56518;BME280;42419;48.760;2.322;2023-04-02T08:49:36;101107.28;;;25.85;28.33
56518;BME280;42419;48.760;2.322;2023-04-02T08:52:03;101116.34;;;25.84;27.84
56518;BME280;42419;48.760;2.322;2023-04-02T08:54:34;101090.22;;;25.69;28.27
56518;BME280;42419;48.760;2.322;2023-04-02T08:57:12;101127.06;;;25.86;27.90
56518;BME280;42419;48.760;2.322;2023-04-02T08:59:44;101115.03;;;25.76;28.32
56518;BME280;42419;48.760;2.322;2023-04-02T09:02:23;101135.94;;;25.88;27.93
56518;BME280;42419;48.760;2.322;2023-04-02T09:04:52;101134.28;;;25.85;27.99
56518;BME280;42419;48.760;2.322;2023-04-02T09:07:20;101153.16;;;25.85;28.32
56518;BME280;42419;48.760;2.322;2023-04-02T09:09:46;101136.97;;;25.85;28.14
56518;BME280;42419;48.760;2.322;2023-04-02T09:14:43;101163.00;;;25.86;28.05
56518;BME280;42419;48.760;2.322;2023-04-02T09:17:27;101167.34;;;25.89;28.09
56518;BME280;42419;48.760;2.322;2023-04-02T09:22:47;101168.47;;;25.85;28.40
56518;BME280;42419;48.760;2.322;2023-04-02T09:25:32;101159.63;;;25.83;28.11
56518;BME280;42419;48.760;2.322;2023-04-02T09:28:03;101172.84;;;25.87;28.14
56518;BME280;42419;48.760;2.322;2023-04-02T09:32:59;101189.91;;;25.88;27.66
56518;BME280;42419;48.760;2.322;2023-04-02T09:35:31;101189.91;;;25.88;27.53
56518;BME280;42419;48.760;2.322;2023-04-02T09:40:40;101185.72;;;25.82;27.71
56518;BME280;42419;48.760;2.322;2023-04-02T09:43:13;101180.66;;;25.76;27.90
56518;BME280;42419;48.760;2.322;2023-04-02T09:45:40;101202.59;;;25.86;28.39
56518;BME280;42419;48.760;2.322;2023-04-02T09:53:38;101212.19;;;25.91;28.66
56518;BME280;42419;48.760;2.322;2023-04-02T09:58:34;101210.34;;;25.92;29.16
56518;BME280;42419;48.760;2.322;2023-04-02T10:00:59;101192.88;;;25.83;29.29
56518;BME280;42419;48.760;2.322;2023-04-02T10:03:31;101220.00;;;25.96;29.45
56518;BME280;42419;48.760;2.322;2023-04-02T10:08:32;101226.28;;;25.97;29.74
56518;BME280;42419;48.760;2.322;2023-04-02T10:11:03;101220.78;;;25.98;29.54
56518;BME280;42419;48.760;2.322;2023-04-02T10:13:55;101231.41;;;26.01;29.82
56518;BME280;42419;48.760;2.322;2023-04-02T10:16:26;101229.69;;;26.00;29.45
56518;BME280;42419;48.760;2.322;2023-04-02T10:21:42;101230.53;;;26.01;30.04
56518;BME280;42419;48.760;2.322;2023-04-02T10:24:18;101231.75;;;25.95;29.59
56518;BME280;42419;48.760;2.322;2023-04-02T10:29:47;101246.81;;;25.99;27.77
56518;BME280;42419;48.760;2.322;2023-04-02T10:32:20;101251.84;;;25.89;27.15
56518;BME280;42419;48.760;2.322;2023-04-02T10:40:09;101265.78;;;25.82;26.06
56518;BME280;42419;48.760;2.322;2023-04-02T10:43:13;101279.34;;;25.80;25.91
56518;BME280;42419;48.760;2.322;2023-04-02T10:45:50;101278.81;;;25.74;26.32
56518;BME280;42419;48.760;2.322;2023-04-02T10:48:27;101274.38;;;25.73;26.02
56518;BME280;42419;48.760;2.322;2023-04-02T10:53:31;101267.94;;;25.58;26.54
56518;BME280;42419;48.760;2.322;2023-04-02T10:56:01;101290.97;;;25.65;26.47
56518;BME280;42419;48.760;2.322;2023-04-02T10:58:34;101284.75;;;25.63;26.57
56518;BME280;42419;48.760;2.322;2023-04-02T11:01:08;101288.41;;;25.62;25.96
56518;BME280;42419;48.760;2.322;2023-04-02T11:03:47;101291.03;;;25.64;26.48
56518;BME280;42419;48.760;2.322;2023-04-02T11:06:23;101262.91;;;25.52;27.94
56518;BME280;42419;48.760;2.322;2023-04-02T11:08:53;101286.13;;;25.72;27.75
56518;BME280;42419;48.760;2.322;2023-04-02T11:14:04;101297.47;;;25.78;29.07
56518;BME280;42419;48.760;2.322;2023-04-02T11:16:35;101296.72;;;25.75;28.49
56518;BME280;42419;48.760;2.322;2023-04-02T11:21:59;101298.47;;;25.76;27.53
56518;BME280;42419;48.760;2.322;2023-04-02T11:29:39;101305.63;;;25.77;30.09
56518;BME280;42419;48.760;2.322;2023-04-02T11:32:24;101314.53;;;25.79;31.07
56518;BME280;42419;48.760;2.322;2023-04-02T11:37:44;101318.88;;;25.81;31.60
56518;BME280;42419;48.760;2.322;2023-04-02T11:42:36;101314.66;;;25.76;31.77
56518;BME280;42419;48.760;2.322;2023-04-02T11:50:33;101321.56;;;25.81;32.08
56518;BME280;42419;48.760;2.322;2023-04-02T11:55:44;101331.56;;;25.79;31.70
56518;BME280;42419;48.760;2.322;2023-04-02T12:09:28;101344.03;;;25.82;31.15
56518;BME280;42419;48.760;2.322;2023-04-02T12:11:58;101353.94;;;25.81;31.10
56518;BME280;42419;48.760;2.322;2023-04-02T12:17:03;101351.41;;;25.78;31.13
56518;BME280;42419;48.760;2.322;2023-04-02T12:19:30;101341.09;;;25.69;31.08
56518;BME280;42419;48.760;2.322;2023-04-02T12:21:57;101359.56;;;25.77;30.99
56518;BME280;42419;48.760;2.322;2023-04-02T12:24:25;101359.41;;;25.80;30.88
56518;BME280;42419;48.760;2.322;2023-04-02T12:27:15;101340.16;;;25.70;30.87
56518;BME280;42419;48.760;2.322;2023-04-02T12:29:41;101364.66;;;25.83;31.17
56518;BME280;42419;48.760;2.322;2023-04-02T12:34:50;101366.38;;;25.84;30.93
56518;BME280;42419;48.760;2.322;2023-04-02T12:37:21;101371.63;;;25.87;31.10
56518;BME280;42419;48.760;2.322;2023-04-02T12:39:51;101369.94;;;25.84;31.40
56518;BME280;42419;48.760;2.322;2023-04-02T12:42:29;101375.34;;;25.84;31.11
56518;BME280;42419;48.760;2.322;2023-04-02T12:44:55;101360.53;;;25.76;30.92
56518;BME280;42419;48.760;2.322;2023-04-02T12:47:20;101363.09;;;25.79;31.24
56518;BME280;42419;48.760;2.322;2023-04-02T12:49:46;101379.88;;;25.84;31.30
56518;BME280;42419;48.760;2.322;2023-04-02T12:52:14;101368.78;;;25.73;31.01
56518;BME280;42419;48.760;2.322;2023-04-02T12:54:51;101377.97;;;25.86;31.15
56518;BME280;42419;48.760;2.322;2023-04-02T12:59:53;101377.50;;;25.78;31.04
56518;BME280;42419;48.760;2.322;2023-04-02T13:02:23;101382.66;;;25.82;31.05
56518;BME280;42419;48.760;2.322;2023-04-02T13:04:59;101380.97;;;25.80;30.67
56518;BME280;42419;48.760;2.322;2023-04-02T13:07:29;101383.69;;;25.80;30.73
56518;BME280;42419;48.760;2.322;2023-04-02T13:10:22;101391.78;;;25.80;30.24
56518;BME280;42419;48.760;2.322;2023-04-02T13:12:54;101394.66;;;25.77;30.36
56518;BME280;42419;48.760;2.322;2023-04-02T13:15:27;101391.25;;;25.73;30.01
56518;BME280;42419;48.760;2.322;2023-04-02T13:18:16;101392.13;;;25.74;30.03
56518;BME280;42419;48.760;2.322;2023-04-02T13:23:40;101380.75;;;25.67;30.04
56518;BME280;42419;48.760;2.322;2023-04-02T13:26:18;101373.94;;;25.60;30.36
56518;BME280;42419;48.760;2.322;2023-04-02T13:29:09;101401.69;;;25.79;31.58
56518;BME280;42419;48.760;2.322;2023-04-02T13:31:41;101399.09;;;25.78;31.35
56518;BME280;42419;48.760;2.322;2023-04-02T13:34:06;101404.31;;;25.81;32.24
56518;BME280;42419;48.760;2.322;2023-04-02T13:36:31;101407.09;;;25.79;31.94
56518;BME280;42419;48.760;2.322;2023-04-02T13:38:58;101407.19;;;25.78;32.23
56518;BME280;42419;48.760;2.322;2023-04-02T13:41:26;101399.81;;;25.81;32.01
56518;BME280;42419;48.760;2.322;2023-04-02T13:43:57;101404.16;;;25.84;32.50
56518;BME280;42419;48.760;2.322;2023-04-02T13:46:26;101407.97;;;25.80;31.88
56518;BME280;42419;48.760;2.322;2023-04-02T13:48:53;101364.50;;;25.52;32.47
56518;BME280;42419;48.760;2.322;2023-04-02T13:51:21;101419.56;;;25.82;31.81
56518;BME280;42419;48.760;2.322;2023-04-02T13:53:51;101413.47;;;25.78;31.18
56518;BME280;42419;48.760;2.322;2023-04-02T13:56:17;101410.13;;;25.73;31.56
56518;BME280;42419;48.760;2.322;2023-04-02T13:58:44;101431.13;;;25.84;30.76
56518;BME280;42419;48.760;2.322;2023-04-02T14:01:11;101438.44;;;25.82;30.56
56518;BME280;42419;48.760;2.322;2023-04-02T14:03:37;101433.06;;;25.82;30.96
56518;BME280;42419;48.760;2.322;2023-04-02T14:11:49;101446.63;;;25.80;30.14
56518;BME280;42419;48.760;2.322;2023-04-02T14:19:41;101451.31;;;25.77;30.55
56518;BME280;42419;48.760;2.322;2023-04-02T14:30:26;101456.00;;;25.73;29.64
56518;BME280;42419;48.760;2.322;2023-04-02T14:35:44;101454.84;;;25.60;29.90
56518;BME280;42419;48.760;2.322;2023-04-02T14:38:32;101474.44;;;25.64;29.62
56518;BME280;42419;48.760;2.322;2023-04-02T14:41:07;101471.91;;;25.61;29.54
56518;BME280;42419;48.760;2.322;2023-04-02T14:43:54;101472.84;;;25.60;29.67
56518;BME280;42419;48.760;2.322;2023-04-02T14:46:24;101478.31;;;25.58;29.68
56518;BME280;42419;48.760;2.322;2023-04-02T14:48:54;101476.66;;;25.56;29.38
56518;BME280;42419;48.760;2.322;2023-04-02T14:51:43;101478.53;;;25.54;29.51
56518;BME280;42419;48.760;2.322;2023-04-02T14:57:19;101484.75;;;25.56;29.28
56518;BME280;42419;48.760;2.322;2023-04-02T15:02:48;101483.94;;;25.54;29.48
56518;BME280;42419;48.760;2.322;2023-04-02T15:05:31;101426.34;;;25.20;29.44
56518;BME280;42419;48.760;2.322;2023-04-02T15:08:04;101489.34;;;25.54;28.96
56518;BME280;42419;48.760;2.322;2023-04-02T15:10:55;101495.66;;;25.53;29.33
56518;BME280;42419;48.760;2.322;2023-04-02T15:13:30;101488.47;;;25.53;28.83
56518;BME280;42419;48.760;2.322;2023-04-02T15:16:07;101486.81;;;25.51;28.70
56518;BME280;42419;48.760;2.322;2023-04-02T15:18:34;101493.94;;;25.52;29.16
56518;BME280;42419;48.760;2.322;2023-04-02T15:23:48;101490.28;;;25.53;29.15
56518;BME280;42419;48.760;2.322;2023-04-02T15:31:44;101484.16;;;25.49;29.18
56518;BME280;42419;48.760;2.322;2023-04-02T15:34:29;101492.97;;;25.53;28.97
56518;BME280;42419;48.760;2.322;2023-04-02T15:45:47;101519.00;;;25.54;28.34
56518;BME280;42419;48.760;2.322;2023-04-02T15:53:44;101525.97;;;25.58;28.46
56518;BME280;42419;48.760;2.322;2023-04-02T16:02:21;101542.91;;;25.61;28.16
56518;BME280;42419;48.760;2.322;2023-04-02T16:05:13;101546.63;;;25.59;28.16
56518;BME280;42419;48.760;2.322;2023-04-02T16:12:46;101552.00;;;25.59;28.40
56518;BME280;42419;48.760;2.322;2023-04-02T16:15:16;101562.78;;;25.59;28.18
56518;BME280;42419;48.760;2.322;2023-04-02T16:17:51;101548.53;;;25.57;28.18
56518;BME280;42419;48.760;2.322;2023-04-02T16:20:35;101557.34;;;25.60;28.08
56518;BME280;42419;48.760;2.322;2023-04-02T16:23:11;101561.03;;;25.58;28.29
56518;BME280;42419;48.760;2.322;2023-04-02T16:25:43;101568.19;;;25.59;28.11
56518;BME280;42419;48.760;2.322;2023-04-02T16:31:16;101573.53;;;25.60;28.45
56518;BME280;42419;48.760;2.322;2023-04-02T16:39:27;101554.38;;;25.47;28.17
56518;BME280;42419;48.760;2.322;2023-04-02T16:42:13;101585.19;;;25.61;27.93
56518;BME280;42419;48.760;2.322;2023-04-02T16:44:53;101579.69;;;25.62;27.69
56518;BME280;42419;48.760;2.322;2023-04-02T16:53:08;101587.94;;;25.59;28.33
56518;BME280;42419;48.760;2.322;2023-04-02T16:56:26;101574.25;;;25.45;27.98
56518;BME280;42419;48.760;2.322;2023-04-02T17:01:16;101603.75;;;25.67;28.67
56518;BME280;42419;48.760;2.322;2023-04-02T17:04:15;101610.75;;;25.71;29.01
56518;BME280;42419;48.760;2.322;2023-04-02T17:06:43;101609.81;;;25.72;29.08
56518;BME280;42419;48.760;2.322;2023-04-02T17:09:47;101616.75;;;25.77;29.20
56518;BME280;42419;48.760;2.322;2023-04-02T17:12:31;101622.09;;;25.79;28.90